Time;durP1;ratioP1;P1;durP2;ratioP2;P2;SDS_P1;SDS_P2;PMS_P1;PMS_P2;Temp;Humidity;BMP_temperature;BMP_pressure;BME280_temperature;BME280_humidity;BME280_pressure;Samples;Min_cycle;Max_cycle;Signal;HPM_P1;HPM_P2
2022/09/15 00:00:41;;;;;;;6.97;6.30;;;;;;;;;;5073390;28;20378;-64
2022/09/15 00:03:06;;;;;;;7.43;6.72;;;;;;;;;;5073698;28;20016;-64
2022/09/15 00:05:31;;;;;;;6.95;6.22;;;;;;;;;;5055975;28;20367;-64
2022/09/15 00:07:57;;;;;;;7.30;6.43;;;;;;;;;;5073381;28;20447;-64
2022/09/15 00:10:22;;;;;;;7.15;6.45;;;;;;;;;;5073613;28;20067;-64
2022/09/15 00:12:48;;;;;;;7.28;6.20;;;;;;;;;;5073860;28;20092;-64
2022/09/15 00:15:13;;;;;;;6.25;5.70;;;;;;;;;;5073624;28;20495;-64
2022/09/15 00:17:39;;;;;;;6.65;6.03;;;;;;;;;;5073258;28;20017;-64
2022/09/15 00:20:06;;;;;;;6.30;5.68;;;;;;;;;;5073459;28;20033;-64
2022/09/15 00:22:31;;;;;;;6.90;6.20;;;;;;;;;;5073980;28;20036;-64
2022/09/15 00:24:57;;;;;;;7.15;6.50;;;;;;;;;;5055514;28;20039;-64
2022/09/15 00:27:22;;;;;;;6.85;6.15;;;;;;;;;;5073376;28;20025;-64
2022/09/15 00:29:47;;;;;;;7.22;6.47;;;;;;;;;;5073275;28;20039;-64
2022/09/15 00:32:13;;;;;;;7.65;6.70;;;;;;;;;;5073366;28;20071;-64
2022/09/15 00:34:38;;;;;;;8.68;6.82;;;;;;;;;;5073046;28;20033;-64
2022/09/15 00:37:03;;;;;;;7.65;5.95;;;;;;;;;;5073259;28;20017;-64
2022/09/15 00:39:29;;;;;;;7.45;6.75;;;;;;;;;;5073139;28;20035;-64
2022/09/15 00:41:54;;;;;;;8.23;7.38;;;;;;;;;;5073159;28;20024;-64
2022/09/15 00:44:35;;;;;;;8.43;7.32;;;;;;;;;;5073700;28;20036;-64
2022/09/15 00:47:01;;;;;;;8.02;7.20;;;;;;;;;;5073114;28;20067;-64
2022/09/15 00:49:29;;;;;;;8.73;7.93;;;;;;;;;;5073165;28;20020;-64
2022/09/15 00:52:00;;;;;;;9.32;8.07;;;;;;;;;;5072455;28;20021;-64
2022/09/15 00:54:29;;;;;;;10.48;8.50;;;;;;;;;;5073541;28;20052;-64
2022/09/15 00:56:55;;;;;;;12.40;8.20;;;;;;;;;;5055018;28;20016;-64
2022/09/15 00:59:23;;;;;;;8.80;7.90;;;;;;;;;;5072910;28;20029;-64
2022/09/15 01:01:50;;;;;;;10.50;8.10;;;;;;;;;;5073388;28;20013;-64
2022/09/15 01:04:16;;;;;;;10.02;8.00;;;;;;;;;;5073127;28;20360;-64
2022/09/15 01:06:45;;;;;;;10.45;8.00;;;;;;;;;;5073517;28;20020;-64
2022/09/15 01:09:19;;;;;;;10.48;7.97;;;;;;;;;;5055434;28;20116;-64
2022/09/15 01:11:45;;;;;;;8.82;7.47;;;;;;;;;;5073726;28;20029;-64
2022/09/15 01:14:11;;;;;;;7.88;7.07;;;;;;;;;;5076673;28;20032;-64
2022/09/15 01:16:54;;;;;;;9.45;7.75;;;;;;;;;;5076908;28;20021;-64
2022/09/15 01:19:20;;;;;;;9.52;7.05;;;;;;;;;;5076438;28;20029;-64
2022/09/15 01:22:01;;;;;;;7.25;6.60;;;;;;;;;;5076162;28;20044;-64
2022/09/15 01:24:42;;;;;;;10.88;7.53;;;;;;;;;;5058289;28;20510;-64
2022/09/15 01:27:23;;;;;;;8.07;6.65;;;;;;;;;;5058706;28;20028;-64
2022/09/15 01:29:48;;;;;;;8.15;6.70;;;;;;;;;;5076347;28;20068;-64
2022/09/15 01:33:04;;;;;;;8.47;7.07;;;;;;;;;;5076110;28;20070;-64
2022/09/15 01:35:36;;;;;;;10.80;7.60;;;;;;;;;;4995280;28;20386;-61
2022/09/15 01:38:10;;;;;;;11.40;8.25;;;;;;;;;;5071265;28;20044;-64
2022/09/15 01:41:02;;;;;;;10.32;7.78;;;;;;;;;;5076240;28;20071;-64
2022/09/15 01:43:29;;;;;;;9.98;7.03;;;;;;;;;;5045102;28;20037;-64
2022/09/15 01:45:54;;;;;;;10.30;7.22;;;;;;;;;;5076304;28;20100;-64
2022/09/15 01:48:22;;;;;;;8.15;7.00;;;;;;;;;;5057821;28;20561;-64
2022/09/15 01:50:50;;;;;;;9.13;7.32;;;;;;;;;;5075861;28;20139;-64
2022/09/15 01:53:17;;;;;;;8.10;7.07;;;;;;;;;;5075574;28;20396;-64
2022/09/15 01:55:50;;;;;;;7.88;6.65;;;;;;;;;;5075948;28;20029;-64
2022/09/15 01:58:16;;;;;;;9.10;7.25;;;;;;;;;;5075903;28;20031;-64
2022/09/15 02:00:44;;;;;;;9.07;7.03;;;;;;;;;;5075780;28;20062;-64
2022/09/15 02:03:18;;;;;;;8.07;7.28;;;;;;;;;;5075803;28;20040;-64
2022/09/15 02:05:47;;;;;;;8.80;7.68;;;;;;;;;;5076022;28;20036;-64
2022/09/15 02:08:35;;;;;;;8.85;7.70;;;;;;;;;;5075436;28;20032;-64
2022/09/15 02:11:06;;;;;;;9.57;8.05;;;;;;;;;;5075609;28;20067;-61
2022/09/15 02:13:38;;;;;;;13.50;7.38;;;;;;;;;;5075586;28;20388;-61
2022/09/15 02:16:09;;;;;;;10.27;7.63;;;;;;;;;;5075473;28;20029;-62
2022/09/15 02:18:43;;;;;;;10.00;7.22;;;;;;;;;;5075473;28;20033;-62
2022/09/15 02:21:11;;;;;;;7.68;6.90;;;;;;;;;;5075179;28;20051;-61
2022/09/15 02:23:39;;;;;;;7.00;6.28;;;;;;;;;;5075158;28;20035;-62
2022/09/15 02:26:07;;;;;;;7.68;6.90;;;;;;;;;;5058495;28;20098;-61
2022/09/15 02:28:35;;;;;;;9.27;6.88;;;;;;;;;;5077777;28;20017;-61
2022/09/15 02:31:02;;;;;;;9.60;6.82;;;;;;;;;;5076438;28;20444;-61
2022/09/15 02:33:36;;;;;;;8.15;7.05;;;;;;;;;;5082187;22;20095;-64
2022/09/15 02:36:02;;;;;;;7.25;5.10;;;;;;;;;;5054948;28;20116;-64
2022/09/15 02:38:32;;;;;;;10.68;7.22;;;;;;;;;;5055428;28;20437;-64
2022/09/15 02:40:58;;;;;;;9.00;7.28;;;;;;;;;;5054515;28;20055;-64
2022/09/15 02:43:23;;;;;;;7.85;7.05;;;;;;;;;;5055184;28;20388;-64
2022/09/15 02:45:48;;;;;;;8.27;7.35;;;;;;;;;;5055211;28;20036;-64
2022/09/15 02:48:14;;;;;;;8.40;7.15;;;;;;;;;;5054348;28;20457;-64
2022/09/15 02:50:40;;;;;;;8.32;7.38;;;;;;;;;;5054514;28;20040;-64
2022/09/15 02:53:05;;;;;;;8.70;7.25;;;;;;;;;;5054521;28;20017;-64
2022/09/15 02:55:31;;;;;;;10.68;7.75;;;;;;;;;;5054956;28;20365;-64
2022/09/15 02:57:57;;;;;;;7.22;6.53;;;;;;;;;;5054142;28;20017;-64
2022/09/15 03:00:23;;;;;;;9.82;8.05;;;;;;;;;;5054451;28;20036;-64
2022/09/15 03:02:50;;;;;;;8.15;7.30;;;;;;;;;;5069753;28;20104;-64
2022/09/15 03:05:18;;;;;;;9.45;7.68;;;;;;;;;;5054184;28;20107;-64
2022/09/15 03:07:43;;;;;;;6.93;5.82;;;;;;;;;;5054710;28;20461;-64
2022/09/15 03:10:10;;;;;;;9.43;7.32;;;;;;;;;;5054171;28;20036;-64
2022/09/15 03:12:40;;;;;;;10.13;7.85;;;;;;;;;;5069749;28;20025;-62
2022/09/15 03:15:07;;;;;;;7.63;6.87;;;;;;;;;;5054703;28;20025;-62
2022/09/15 03:17:33;;;;;;;8.70;6.93;;;;;;;;;;5054065;28;20607;-62
2022/09/15 03:19:59;;;;;;;6.55;5.95;;;;;;;;;;5054531;28;20461;-61
2022/09/15 03:22:24;;;;;;;6.00;5.40;;;;;;;;;;5069449;28;20073;-61
2022/09/15 03:24:50;;;;;;;13.32;7.40;;;;;;;;;;5053973;28;20101;-61
2022/09/15 03:27:15;;;;;;;5.00;4.45;;;;;;;;;;5054012;28;20032;-61
2022/09/15 03:29:41;;;;;;;9.57;7.22;;;;;;;;;;5053711;28;20095;-64
2022/09/15 03:32:06;;;;;;;8.90;7.13;;;;;;;;;;5069508;28;20013;-64
2022/09/15 03:34:32;;;;;;;6.90;6.03;;;;;;;;;;5052922;28;20043;-64
2022/09/15 03:36:57;;;;;;;7.22;6.50;;;;;;;;;;5053850;28;20377;-64
2022/09/15 03:39:23;;;;;;;6.68;6.00;;;;;;;;;;5054092;28;20108;-64
2022/09/15 03:41:48;;;;;;;7.43;6.50;;;;;;;;;;5053683;28;20020;-64
2022/09/15 03:44:14;;;;;;;6.97;6.35;;;;;;;;;;5053975;28;20368;-64
2022/09/15 03:46:39;;;;;;;10.55;6.25;;;;;;;;;;5053172;28;20071;-64
2022/09/15 03:49:04;;;;;;;6.80;5.95;;;;;;;;;;5053222;28;20017;-64
2022/09/15 03:51:30;;;;;;;6.72;5.47;;;;;;;;;;5053532;28;20079;-64
2022/09/15 03:53:55;;;;;;;7.03;6.45;;;;;;;;;;5054029;28;20028;-64
2022/09/15 03:56:30;;;;;;;6.63;5.63;;;;;;;;;;5053589;28;20027;-64
2022/09/15 03:58:56;;;;;;;7.15;5.93;;;;;;;;;;5053622;28;20021;-64
2022/09/15 04:01:22;;;;;;;6.72;6.00;;;;;;;;;;5053193;28;20414;-64
2022/09/15 04:03:47;;;;;;;7.55;5.57;;;;;;;;;;5053518;28;20040;-64
2022/09/15 04:06:13;;;;;;;6.32;5.75;;;;;;;;;;5052639;28;20090;-64
2022/09/15 04:08:39;;;;;;;5.80;5.30;;;;;;;;;;5052726;28;20021;-64
2022/09/15 04:11:05;;;;;;;5.82;5.32;;;;;;;;;;5053291;28;20512;-64
2022/09/15 04:13:31;;;;;;;5.68;5.20;;;;;;;;;;5052820;28;20031;-64
2022/09/15 04:15:57;;;;;;;5.60;5.05;;;;;;;;;;5053113;28;20096;-64
2022/09/15 04:18:23;;;;;;;5.40;4.88;;;;;;;;;;5053331;28;20104;-64
2022/09/15 04:20:48;;;;;;;6.72;5.25;;;;;;;;;;5053528;28;20501;-64
2022/09/15 04:23:14;;;;;;;5.13;4.68;;;;;;;;;;5053059;28;20087;-64
2022/09/15 04:25:39;;;;;;;5.35;4.85;;;;;;;;;;5052885;28;20476;-64
2022/09/15 04:28:05;;;;;;;4.75;4.35;;;;;;;;;;5052929;28;20025;-64
2022/09/15 04:30:30;;;;;;;5.07;4.68;;;;;;;;;;5052708;28;20569;-64
2022/09/15 04:32:56;;;;;;;5.00;4.57;;;;;;;;;;5035127;28;20175;-64
2022/09/15 04:35:21;;;;;;;5.07;4.55;;;;;;;;;;5052740;28;20048;-64
2022/09/15 04:37:47;;;;;;;4.82;4.47;;;;;;;;;;5052550;28;20127;-64
2022/09/15 04:40:12;;;;;;;4.90;4.47;;;;;;;;;;5052213;28;20028;-64
2022/09/15 04:42:38;;;;;;;6.03;4.57;;;;;;;;;;5051384;28;20044;-64
2022/09/15 04:45:03;;;;;;;4.93;4.60;;;;;;;;;;5051375;28;20373;-64
2022/09/15 04:47:29;;;;;;;5.50;4.88;;;;;;;;;;5054454;28;20120;-64
2022/09/15 04:49:54;;;;;;;5.85;4.85;;;;;;;;;;5054542;28;20036;-64
2022/09/15 04:52:20;;;;;;;7.68;5.05;;;;;;;;;;5055124;28;20029;-64
2022/09/15 04:54:45;;;;;;;5.38;4.93;;;;;;;;;;5055606;28;20016;-64
2022/09/15 04:57:10;;;;;;;5.07;4.65;;;;;;;;;;5036862;28;20029;-64
2022/09/15 04:59:36;;;;;;;6.25;4.85;;;;;;;;;;5056066;28;20021;-63
2022/09/15 05:02:02;;;;;;;5.60;4.97;;;;;;;;;;5055774;28;20021;-65
2022/09/15 05:04:27;;;;;;;5.47;5.03;;;;;;;;;;5055770;28;20017;-64
2022/09/15 05:06:52;;;;;;;6.60;4.97;;;;;;;;;;5057446;28;20060;-64
2022/09/15 05:09:18;;;;;;;6.97;5.38;;;;;;;;;;5057545;28;20031;-64
2022/09/15 05:11:43;;;;;;;6.13;5.53;;;;;;;;;;5056356;28;20071;-64
2022/09/15 05:14:09;;;;;;;5.70;5.18;;;;;;;;;;5056182;28;20021;-64
2022/09/15 05:16:34;;;;;;;6.57;5.78;;;;;;;;;;5055274;28;20439;-64
2022/09/15 05:19:00;;;;;;;6.93;6.25;;;;;;;;;;5055340;28;20048;-64
2022/09/15 05:21:26;;;;;;;7.40;6.70;;;;;;;;;;5055340;28;20033;-64
2022/09/15 05:23:51;;;;;;;7.22;6.63;;;;;;;;;;5037426;28;20013;-64
2022/09/15 05:26:18;;;;;;;6.25;5.63;;;;;;;;;;5037517;28;20029;-64
2022/09/15 05:28:44;;;;;;;5.53;5.03;;;;;;;;;;5055141;28;20035;-64
2022/09/15 05:31:10;;;;;;;4.25;3.45;;;;;;;;;;5055012;28;20029;-64
2022/09/15 05:33:36;;;;;;;3.53;3.33;;;;;;;;;;5054820;28;20037;-62
2022/09/15 05:36:02;;;;;;;2.45;2.25;;;;;;;;;;5055026;28;20441;-62
2022/09/15 05:38:28;;;;;;;1.70;1.60;;;;;;;;;;5054967;28;20028;-62
2022/09/15 05:40:54;;;;;;;1.50;1.38;;;;;;;;;;5054880;28;20036;-62
2022/09/15 05:43:20;;;;;;;0.88;0.65;;;;;;;;;;5054864;28;20479;-62
2022/09/15 05:45:54;;;;;;;0.73;0.60;;;;;;;;;;5054704;28;20029;-62
2022/09/15 05:48:20;;;;;;;0.57;0.40;;;;;;;;;;5055000;28;20032;-62
2022/09/15 05:50:49;;;;;;;2.15;2.05;;;;;;;;;;5054614;28;20488;-62
2022/09/15 05:53:15;;;;;;;6.13;5.53;;;;;;;;;;5054672;28;20035;-62
2022/09/15 05:55:40;;;;;;;7.85;6.00;;;;;;;;;;5054569;28;20260;-62
2022/09/15 05:58:05;;;;;;;8.55;7.38;;;;;;;;;;5054007;28;20025;-62
2022/09/15 06:00:32;;;;;;;5.30;5.00;;;;;;;;;;5054998;28;20024;-62
2022/09/15 06:02:57;;;;;;;1.98;1.88;;;;;;;;;;5055335;28;20078;-62
2022/09/15 06:05:22;;;;;;;0.60;0.60;;;;;;;;;;5055827;28;20255;-62
2022/09/15 06:07:48;;;;;;;0.50;0.30;;;;;;;;;;5055471;28;20025;-62
2022/09/15 06:10:13;;;;;;;0.50;0.50;;;;;;;;;;5055620;28;20479;-62
2022/09/15 06:12:40;;;;;;;0.70;0.70;;;;;;;;;;5037527;28;20544;-62
2022/09/15 06:15:05;;;;;;;2.05;1.85;;;;;;;;;;5055326;28;20139;-62
2022/09/15 06:17:31;;;;;;;1.52;1.42;;;;;;;;;;5055467;28;20024;-62
2022/09/15 06:19:57;;;;;;;0.60;0.60;;;;;;;;;;5055802;28;20461;-62
2022/09/15 06:22:23;;;;;;;0.68;0.68;;;;;;;;;;5055510;28;20140;-62
2022/09/15 06:24:51;;;;;;;0.70;0.70;;;;;;;;;;5055372;28;20021;-62
2022/09/15 06:27:17;;;;;;;1.13;1.13;;;;;;;;;;5037438;28;20048;-62
2022/09/15 06:29:42;;;;;;;0.80;0.80;;;;;;;;;;5037244;28;20071;-62
2022/09/15 06:32:07;;;;;;;0.70;0.70;;;;;;;;;;5055281;28;20037;-62
2022/09/15 06:34:33;;;;;;;0.68;0.68;;;;;;;;;;5054949;28;20045;-62
2022/09/15 06:36:58;;;;;;;0.82;0.82;;;;;;;;;;5055492;28;20018;-62
2022/09/15 06:39:24;;;;;;;1.15;1.10;;;;;;;;;;5055437;28;20095;-62
2022/09/15 06:41:49;;;;;;;1.00;1.00;;;;;;;;;;5055346;28;20064;-62
2022/09/15 06:44:16;;;;;;;1.23;1.10;;;;;;;;;;5055060;28;20024;-62
2022/09/15 06:46:42;;;;;;;0.75;0.75;;;;;;;;;;5037349;28;20377;-62
2022/09/15 06:49:07;;;;;;;0.90;0.90;;;;;;;;;;5055066;28;20094;-62
2022/09/15 06:51:34;;;;;;;0.90;0.90;;;;;;;;;;5054006;28;20033;-62
2022/09/15 06:54:00;;;;;;;2.00;1.90;;;;;;;;;;5053872;28;20021;-62
2022/09/15 06:56:26;;;;;;;1.52;1.42;;;;;;;;;;5036803;28;20394;-61
2022/09/15 06:58:52;;;;;;;1.70;1.60;;;;;;;;;;5055100;28;20013;-61
2022/09/15 07:01:19;;;;;;;2.08;1.98;;;;;;;;;;5054466;28;20063;-61
2022/09/15 07:03:44;;;;;;;1.92;1.83;;;;;;;;;;5054408;28;20033;-61
2022/09/15 07:06:13;;;;;;;1.00;1.00;;;;;;;;;;5036527;28;20032;-61
2022/09/15 07:08:39;;;;;;;1.10;1.10;;;;;;;;;;5053415;28;20025;-61
2022/09/15 07:11:05;;;;;;;1.10;1.10;;;;;;;;;;5051323;28;20086;-61
2022/09/15 07:13:30;;;;;;;1.00;1.00;;;;;;;;;;5052156;28;20017;-61
2022/09/15 07:15:57;;;;;;;1.17;1.10;;;;;;;;;;5052297;28;20380;-61
2022/09/15 07:18:22;;;;;;;3.08;2.88;;;;;;;;;;5052374;28;20013;-61
2022/09/15 07:20:48;;;;;;;1.85;1.75;;;;;;;;;;5053075;28;20388;-61
2022/09/15 07:23:14;;;;;;;2.85;1.35;;;;;;;;;;5053161;28;20036;-61
2022/09/15 07:25:42;;;;;;;1.10;1.10;;;;;;;;;;5036511;28;20103;-61
2022/09/15 07:28:08;;;;;;;0.93;0.93;;;;;;;;;;5054251;28;20040;-61
2022/09/15 07:30:34;;;;;;;1.20;1.20;;;;;;;;;;5053887;28;20391;-61
2022/09/15 07:32:59;;;;;;;1.67;1.40;;;;;;;;;;5054495;28;20013;-61
2022/09/15 07:35:25;;;;;;;1.20;1.20;;;;;;;;;;5053720;28;20048;-61
2022/09/15 07:37:51;;;;;;;1.10;1.10;;;;;;;;;;5053855;28;20036;-61
2022/09/15 07:40:16;;;;;;;2.60;0.98;;;;;;;;;;5054063;28;20028;-61
2022/09/15 07:42:43;;;;;;;1.10;1.10;;;;;;;;;;5054001;28;20017;-61
2022/09/15 07:45:09;;;;;;;0.93;0.93;;;;;;;;;;5053701;28;20396;-61
2022/09/15 07:47:34;;;;;;;1.02;1.02;;;;;;;;;;5054225;28;20033;-61
2022/09/15 07:49:59;;;;;;;1.20;1.20;;;;;;;;;;5053902;28;20128;-61
2022/09/15 07:52:24;;;;;;;1.17;1.13;;;;;;;;;;5053877;28;20024;-61
2022/09/15 07:54:50;;;;;;;2.10;1.50;;;;;;;;;;5053854;28;20412;-61
2022/09/15 07:57:15;;;;;;;1.35;1.27;;;;;;;;;;5053557;28;20392;-61
2022/09/15 07:59:40;;;;;;;1.35;1.30;;;;;;;;;;5035796;28;20112;-61
2022/09/15 08:02:06;;;;;;;1.30;1.30;;;;;;;;;;5054110;28;20043;-61
2022/09/15 08:04:31;;;;;;;2.55;1.42;;;;;;;;;;5037688;28;20033;-61
2022/09/15 08:06:57;;;;;;;1.67;1.38;;;;;;;;;;5055841;28;20017;-61
2022/09/15 08:09:22;;;;;;;1.73;1.50;;;;;;;;;;5053911;28;20381;-62
2022/09/15 08:11:47;;;;;;;3.40;1.70;;;;;;;;;;5053890;28;20092;-61
2022/09/15 08:14:13;;;;;;;6.65;5.97;;;;;;;;;;5053655;28;20473;-61
2022/09/15 08:16:38;;;;;;;23.42;20.92;;;;;;;;;;5053350;28;20017;-61
2022/09/15 08:19:04;;;;;;;7.35;6.78;;;;;;;;;;5019065;28;20496;-61
2022/09/15 08:21:29;;;;;;;2.42;2.33;;;;;;;;;;5055152;28;20524;-61
2022/09/15 08:23:56;;;;;;;3.78;3.47;;;;;;;;;;5057430;28;20031;-61
2022/09/15 08:26:21;;;;;;;3.08;2.20;;;;;;;;;;5057407;28;20063;-62
2022/09/15 08:28:47;;;;;;;1.60;1.50;;;;;;;;;;5057359;28;20064;-62
2022/09/15 08:31:13;;;;;;;1.40;1.30;;;;;;;;;;5057253;28;20028;-62
2022/09/15 08:33:38;;;;;;;1.17;1.15;;;;;;;;;;5057286;28;20509;-62
2022/09/15 08:36:06;;;;;;;1.10;1.10;;;;;;;;;;5057194;28;20033;-62
2022/09/15 08:38:31;;;;;;;1.58;1.48;;;;;;;;;;5057461;28;20029;-62
2022/09/15 08:41:17;;;;;;;1.33;1.00;;;;;;;;;;5057115;28;20033;-62
2022/09/15 08:43:49;;;;;;;1.13;1.10;;;;;;;;;;5056486;28;20386;-62
2022/09/15 08:46:18;;;;;;;1.15;1.13;;;;;;;;;;5057024;28;20044;-62
2022/09/15 08:49:06;;;;;;;1.23;1.00;;;;;;;;;;5057247;28;20104;-62
2022/09/15 08:51:35;;;;;;;0.90;0.90;;;;;;;;;;5051108;28;20048;-62
2022/09/15 08:54:06;;;;;;;1.38;1.27;;;;;;;;;;5057129;28;20028;-62
2022/09/15 08:56:32;;;;;;;1.33;1.27;;;;;;;;;;5056831;28;20068;-62
2022/09/15 08:58:58;;;;;;;1.75;1.50;;;;;;;;;;5056772;28;20052;-62
2022/09/15 09:01:30;;;;;;;1.48;1.38;;;;;;;;;;5057029;28;20076;-62
2022/09/15 09:04:04;;;;;;;1.33;1.33;;;;;;;;;;5039923;28;20025;-62
2022/09/15 09:06:43;;;;;;;1.40;1.30;;;;;;;;;;5056802;28;20491;-62
2022/09/15 09:09:27;;;;;;;1.58;1.48;;;;;;;;;;5039196;28;20028;-62
2022/09/15 09:12:12;;;;;;;1.23;1.23;;;;;;;;;;5038668;28;20029;-62
2022/09/15 09:14:56;;;;;;;1.60;1.50;;;;;;;;;;5049106;28;20052;-62
2022/09/15 09:17:21;;;;;;;1.67;1.58;;;;;;;;;;5056721;28;20384;-62
2022/09/15 09:19:51;;;;;;;1.67;1.50;;;;;;;;;;5055552;28;20025;-62
2022/09/15 09:22:19;;;;;;;2.08;1.55;;;;;;;;;;5054991;28;20021;-64
2022/09/15 09:24:50;;;;;;;2.92;1.70;;;;;;;;;;5054940;28;20457;-64
2022/09/15 09:27:17;;;;;;;1.90;1.80;;;;;;;;;;5055136;28;20036;-64
2022/09/15 09:29:48;;;;;;;2.08;1.63;;;;;;;;;;5055038;28;20028;-64
2022/09/15 09:32:13;;;;;;;;;;;;;;;;;;5054731;28;20030;-64
2022/09/15 09:34:44;;;;;;;1.77;1.55;;;;;;;;;;5036995;28;20326;-64
2022/09/15 09:37:10;;;;;;;3.03;1.70;;;;;;;;;;5054982;28;20036;-64
2022/09/15 09:39:36;;;;;;;1.70;1.60;;;;;;;;;;5055211;28;20078;-64
2022/09/15 09:42:02;;;;;;;1.58;1.42;;;;;;;;;;5054874;28;20108;-64
2022/09/15 09:44:30;;;;;;;2.15;1.50;;;;;;;;;;5054816;28;20013;-64
2022/09/15 09:46:57;;;;;;;1.40;1.30;;;;;;;;;;5054790;28;20055;-64
2022/09/15 09:49:23;;;;;;;2.75;1.45;;;;;;;;;;5054766;28;20017;-64
2022/09/15 09:51:53;;;;;;;2.67;1.35;;;;;;;;;;5054805;28;20029;-64
2022/09/15 09:54:20;;;;;;;1.48;1.38;;;;;;;;;;5054967;28;20372;-64
2022/09/15 09:56:46;;;;;;;2.05;1.50;;;;;;;;;;5054312;28;20021;-64
2022/09/15 09:59:30;;;;;;;1.08;1.08;;;;;;;;;;5036670;28;20366;-64
2022/09/15 10:02:11;;;;;;;1.48;1.38;;;;;;;;;;5054500;28;20021;-64
2022/09/15 10:04:37;;;;;;;1.38;1.27;;;;;;;;;;5053970;28;20039;-64
2022/09/15 10:07:03;;;;;;;3.80;1.88;;;;;;;;;;5036569;28;20056;-65
2022/09/15 10:09:28;;;;;;;2.13;1.92;;;;;;;;;;5054295;28;20033;-64
2022/09/15 10:11:56;;;;;;;1.75;1.60;;;;;;;;;;5054252;28;20027;-64
2022/09/15 10:14:29;;;;;;;2.58;1.50;;;;;;;;;;5054279;28;20033;-64
2022/09/15 10:16:55;;;;;;;1.50;1.40;;;;;;;;;;5054285;28;20040;-64
2022/09/15 10:19:21;;;;;;;1.20;1.20;;;;;;;;;;5035984;28;20037;-64
2022/09/15 10:21:46;;;;;;;1.15;1.05;;;;;;;;;;5036341;28;20082;-64
2022/09/15 10:24:31;;;;;;;1.20;1.20;;;;;;;;;;5053817;28;20400;-64
2022/09/15 10:27:15;;;;;;;1.70;1.38;;;;;;;;;;5036222;28;20086;-64
2022/09/15 10:29:41;;;;;;;1.50;1.40;;;;;;;;;;5053982;28;20031;-64
2022/09/15 10:32:20;;;;;;;1.70;1.60;;;;;;;;;;5054232;28;20017;-64
2022/09/15 10:34:47;;;;;;;1.52;1.45;;;;;;;;;;5053663;28;20029;-64
2022/09/15 10:37:27;;;;;;;1.63;1.52;;;;;;;;;;5053871;28;20477;-64
2022/09/15 10:39:54;;;;;;;1.75;1.65;;;;;;;;;;5053857;28;20067;-64
2022/09/15 10:42:38;;;;;;;1.63;1.52;;;;;;;;;;5053788;28;20139;-64
2022/09/15 10:45:12;;;;;;;1.85;1.58;;;;;;;;;;5035718;28;20075;-64
2022/09/15 10:47:38;;;;;;;1.85;1.75;;;;;;;;;;5053706;28;20045;-62
2022/09/15 10:50:14;;;;;;;1.65;1.55;;;;;;;;;;5035623;28;20036;-64
2022/09/15 10:53:00;;;;;;;1.80;1.70;;;;;;;;;;5053507;28;20075;-64
2022/09/15 10:55:28;;;;;;;2.00;1.90;;;;;;;;;;5033668;28;20385;-64
2022/09/15 10:58:12;;;;;;;2.63;1.63;;;;;;;;;;5055869;28;20009;-64
2022/09/15 11:00:42;;;;;;;1.95;1.35;;;;;;;;;;5054053;28;20021;-64
2022/09/15 11:03:07;;;;;;;1.40;1.38;;;;;;;;;;5035866;28;20469;-64
2022/09/15 11:05:45;;;;;;;1.53;1.43;;;;;;;;;;5053357;28;20035;-64
2022/09/15 11:08:16;;;;;;;1.50;1.40;;;;;;;;;;5053263;28;20311;-64
2022/09/15 11:10:53;;;;;;;1.38;1.23;;;;;;;;;;5035373;28;20492;-64
2022/09/15 11:13:27;;;;;;;1.45;1.45;;;;;;;;;;5053192;28;20131;-64
2022/09/15 11:16:11;;;;;;;1.77;1.65;;;;;;;;;;5035264;28;20540;-64
2022/09/15 11:19:03;;;;;;;2.63;2.42;;;;;;;;;;5053062;28;20546;-64
2022/09/15 11:21:41;;;;;;;3.00;2.38;;;;;;;;;;5053042;28;20112;-64
2022/09/15 11:24:09;;;;;;;4.85;2.45;;;;;;;;;;5053049;28;20033;-64
2022/09/15 11:26:35;;;;;;;2.60;2.40;;;;;;;;;;5035122;28;20052;-64
2022/09/15 11:29:13;;;;;;;3.08;2.35;;;;;;;;;;5053098;28;20083;-64
2022/09/15 11:31:40;;;;;;;4.55;2.70;;;;;;;;;;5052509;28;20114;-64
2022/09/15 11:34:11;;;;;;;2.95;2.72;;;;;;;;;;5034831;28;20040;-64
2022/09/15 11:36:39;;;;;;;5.47;2.78;;;;;;;;;;5052718;28;20037;-64
2022/09/15 11:39:11;;;;;;;3.20;2.90;;;;;;;;;;5052399;28;20037;-64
2022/09/15 11:41:42;;;;;;;2.42;2.22;;;;;;;;;;5052654;28;20501;-64
2022/09/15 11:44:20;;;;;;;3.55;2.53;;;;;;;;;;5034782;28;20431;-64
2022/09/15 11:47:04;;;;;;;5.88;2.90;;;;;;;;;;5052589;28;20043;-64
2022/09/15 11:49:44;;;;;;;3.22;2.95;;;;;;;;;;5052500;28;20070;-64
2022/09/15 11:52:19;;;;;;;4.25;2.80;;;;;;;;;;5052513;28;20584;-64
2022/09/15 11:54:50;;;;;;;3.08;2.83;;;;;;;;;;5052452;28;20124;-64
2022/09/15 11:57:29;;;;;;;5.05;2.67;;;;;;;;;;5051487;28;20025;-64
2022/09/15 12:00:24;;;;;;;4.68;2.40;;;;;;;;;;5051355;28;20047;-64
2022/09/15 12:03:08;;;;;;;2.95;2.75;;;;;;;;;;5025952;28;20045;-64
2022/09/15 12:05:48;;;;;;;2.50;2.30;;;;;;;;;;5052177;28;20543;-64
2022/09/15 12:08:17;;;;;;;1.85;1.75;;;;;;;;;;5052496;28;20033;-64
2022/09/15 12:10:45;;;;;;;2.00;1.90;;;;;;;;;;5052204;28;20042;-64
2022/09/15 12:13:17;;;;;;;2.88;2.05;;;;;;;;;;5052333;28;20358;-64
2022/09/15 12:15:43;;;;;;;6.53;2.25;;;;;;;;;;5052636;28;20039;-64
2022/09/15 12:18:30;;;;;;;2.67;2.30;;;;;;;;;;5034527;28;20017;-64
2022/09/15 12:20:55;;;;;;;3.50;3.22;;;;;;;;;;5052227;28;20116;-64
2022/09/15 12:23:28;;;;;;;4.37;3.93;;;;;;;;;;5034088;28;20096;-64
2022/09/15 12:25:53;;;;;;;4.90;4.38;;;;;;;;;;5051986;28;20268;-64
2022/09/15 12:28:21;;;;;;;6.22;4.82;;;;;;;;;;5052228;28;20020;-64
2022/09/15 12:30:47;;;;;;;7.80;4.72;;;;;;;;;;5034247;28;20064;-64
2022/09/15 12:33:47;;;;;;;4.00;3.38;;;;;;;;;;5051779;28;20500;-64
2022/09/15 12:36:31;;;;;;;5.15;4.15;;;;;;;;;;5010191;28;20030;-64
2022/09/15 12:38:57;;;;;;;4.60;4.05;;;;;;;;;;5030841;28;20485;-64
2022/09/15 12:41:23;;;;;;;7.15;4.05;;;;;;;;;;5052068;28;20021;-64
2022/09/15 12:44:10;;;;;;;3.80;3.47;;;;;;;;;;5052234;28;20053;-64
2022/09/15 12:46:35;;;;;;;4.22;3.88;;;;;;;;;;5051778;28;20089;-64
2022/09/15 12:49:02;;;;;;;4.22;3.85;;;;;;;;;;5051983;28;20100;-64
2022/09/15 12:51:28;;;;;;;6.25;3.88;;;;;;;;;;5051708;28;20036;-62
2022/09/15 12:54:03;;;;;;;4.43;3.95;;;;;;;;;;5052168;28;20031;-64
2022/09/15 12:56:30;;;;;;;3.50;3.20;;;;;;;;;;5035252;28;20066;-64
2022/09/15 12:59:01;;;;;;;3.83;3.53;;;;;;;;;;5053274;28;20094;-64
2022/09/15 13:01:26;;;;;;;4.57;4.13;;;;;;;;;;5052640;28;20111;-64
2022/09/15 13:03:56;;;;;;;4.68;4.22;;;;;;;;;;5053249;28;20057;-64
2022/09/15 13:06:28;;;;;;;5.88;5.43;;;;;;;;;;5052785;28;20053;-64
2022/09/15 13:08:54;;;;;;;5.88;5.03;;;;;;;;;;5055301;28;20104;-64
2022/09/15 13:11:22;;;;;;;5.80;5.20;;;;;;;;;;5056514;28;20060;-64
2022/09/15 13:14:17;;;;;;;4.35;3.92;;;;;;;;;;5056796;28;20112;-64
2022/09/15 13:16:50;;;;;;;3.70;3.33;;;;;;;;;;5046442;28;20041;-64
2022/09/15 13:19:19;;;;;;;3.42;3.13;;;;;;;;;;5054414;28;20029;-64
2022/09/15 13:21:49;;;;;;;3.08;2.80;;;;;;;;;;5036499;28;20028;-64
2022/09/15 13:24:18;;;;;;;3.42;2.88;;;;;;;;;;5055208;28;20028;-64
2022/09/15 13:26:46;;;;;;;3.53;3.13;;;;;;;;;;5055326;28;20025;-64
2022/09/15 13:29:14;;;;;;;3.10;2.90;;;;;;;;;;5055281;28;20033;-64
2022/09/15 13:31:42;;;;;;;3.35;3.15;;;;;;;;;;5055437;28;20017;-64
2022/09/15 13:34:10;;;;;;;3.72;3.42;;;;;;;;;;5056103;28;20554;-64
2022/09/15 13:36:45;;;;;;;3.47;3.22;;;;;;;;;;5056588;28;20036;-64
2022/09/15 13:39:30;;;;;;;4.32;4.03;;;;;;;;;;5045837;28;20032;-65
2022/09/15 13:42:05;;;;;;;4.10;3.90;;;;;;;;;;5051472;28;20064;-65
2022/09/15 13:44:45;;;;;;;3.20;2.90;;;;;;;;;;5033395;28;20512;-65
2022/09/15 13:47:10;;;;;;;5.15;4.30;;;;;;;;;;5051214;28;20037;-65
2022/09/15 13:49:38;;;;;;;3.92;3.72;;;;;;;;;;5051016;28;20033;-65
2022/09/15 13:52:16;;;;;;;4.40;4.00;;;;;;;;;;5050888;28;20408;-65
2022/09/15 13:55:00;;;;;;;4.80;4.40;;;;;;;;;;5050948;28;20040;-65
2022/09/15 13:57:26;;;;;;;5.07;4.68;;;;;;;;;;5050965;28;20079;-65
2022/09/15 13:59:52;;;;;;;4.80;4.50;;;;;;;;;;5032943;28;20392;-65
2022/09/15 14:02:18;;;;;;;5.53;5.03;;;;;;;;;;5050772;28;20039;-65
2022/09/15 14:04:49;;;;;;;5.55;5.05;;;;;;;;;;5033118;28;20025;-65
2022/09/15 14:07:20;;;;;;;5.43;4.97;;;;;;;;;;5050559;28;20508;-65
2022/09/15 14:09:46;;;;;;;6.05;5.50;;;;;;;;;;5050755;28;20031;-65
2022/09/15 14:12:13;;;;;;;6.47;5.55;;;;;;;;;;5050796;28;20448;-65
2022/09/15 14:14:41;;;;;;;6.50;6.00;;;;;;;;;;5050636;28;20037;-62
2022/09/15 14:17:19;;;;;;;5.80;5.38;;;;;;;;;;5050730;28;20025;-62
2022/09/15 14:19:46;;;;;;;5.50;5.10;;;;;;;;;;5031710;28;20391;-62
2022/09/15 14:22:33;;;;;;;6.05;5.43;;;;;;;;;;5050565;28;20021;-62
2022/09/15 14:25:03;;;;;;;5.68;5.18;;;;;;;;;;5050573;28;20118;-62
2022/09/15 14:27:31;;;;;;;5.88;5.28;;;;;;;;;;5050282;28;20044;-62
2022/09/15 14:29:57;;;;;;;5.50;5.00;;;;;;;;;;5050000;28;20024;-62
2022/09/15 14:32:24;;;;;;;5.55;5.05;;;;;;;;;;5032040;28;20068;-62
2022/09/15 14:34:49;;;;;;;6.25;5.75;;;;;;;;;;5050287;28;20068;-62
2022/09/15 14:37:31;;;;;;;5.57;5.07;;;;;;;;;;5050211;28;20088;-62
2022/09/15 14:39:57;;;;;;;5.43;5.03;;;;;;;;;;5049828;28;20120;-62
2022/09/15 14:42:29;;;;;;;5.60;5.20;;;;;;;;;;5050113;28;20036;-64
2022/09/15 14:44:55;;;;;;;5.70;5.15;;;;;;;;;;5049872;28;20086;-62
2022/09/15 14:47:21;;;;;;;6.18;5.55;;;;;;;;;;5049929;28;20025;-62
2022/09/15 14:49:47;;;;;;;7.25;6.53;;;;;;;;;;5049494;28;20341;-62
2022/09/15 14:52:27;;;;;;;6.07;5.57;;;;;;;;;;5049890;28;20024;-62
2022/09/15 14:54:56;;;;;;;6.05;5.50;;;;;;;;;;5049840;28;20033;-62